Time;durP1;ratioP1;P1;durP2;ratioP2;P2;SDS_P1;SDS_P2;PMS_P1;PMS_P2;Temp;Humidity;BMP_temperature;BMP_pressure;BME280_temperature;BME280_humidity;BME280_pressure;Samples;Min_cycle;Max_cycle;Signal;HPM_P1;HPM_P2
2021/12/29 00:01:15;;;;;;;0.00;0.00;;;;;20.40;100659.00;;;;5110206;28;19931;-78
2021/12/29 00:03:45;;;;;;;0.00;0.00;;;;;20.40;100636.00;;;;5111159;28;20418;-77
2021/12/29 00:06:17;;;;;;;0.77;0.35;;;;;20.40;100663.00;;;;5111177;28;20143;-76
2021/12/29 00:08:46;;;;;;;0.00;0.00;;;;;20.30;100670.00;;;;5110862;28;20055;-80
2021/12/29 00:11:16;;;;;;;0.00;0.00;;;;;20.30;100675.00;;;;5110499;28;20126;-78
2021/12/29 00:13:46;;;;;;;1.23;0.00;;;;;20.30;100672.00;;;;5110542;28;20036;-77
2021/12/29 00:16:15;;;;;;;0.00;0.00;;;;;20.30;100682.00;;;;5112458;28;20042;-77
2021/12/29 00:18:45;;;;;;;8.85;0.20;;;;;20.40;100697.00;;;;5112514;28;20160;-77
2021/12/29 00:21:14;;;;;;;1.08;0.28;;;;;20.40;100682.00;;;;5112488;27;20049;-76
2021/12/29 00:23:44;;;;;;;0.00;0.00;;;;;20.40;100704.00;;;;5119912;27;20046;-77
2021/12/29 00:26:30;;;;;;;0.00;0.00;;;;;20.30;100687.00;;;;5118923;27;20075;-81
2021/12/29 00:29:00;;;;;;;;;;;;;20.20;100700.00;;;;5127078;27;20039;-79
2021/12/29 00:31:32;;;;;;;0.00;0.00;;;;;20.30;100700.00;;;;5132434;27;19958;-75
2021/12/29 00:34:20;;;;;;;0.00;0.00;;;;;20.20;100703.00;;;;5129523;27;20516;-76
2021/12/29 00:37:08;;;;;;;0.00;0.00;;;;;20.20;100705.00;;;;5131292;27;20069;-77
2021/12/29 00:39:56;;;;;;;0.03;0.03;;;;;20.20;100700.00;;;;5131751;27;20577;-78
2021/12/29 00:42:44;;;;;;;0.17;0.10;;;;;20.10;100705.00;;;;5130555;27;20548;-80
2021/12/29 00:45:36;;;;;;;0.75;0.20;;;;;20.10;100710.00;;;;5131387;27;20058;-77
2021/12/29 00:48:11;;;;;;;0.63;0.63;;;;;20.10;100691.00;;;;5130011;27;20053;-79
2021/12/29 00:50:42;;;;;;;5.10;0.10;;;;;20.10;100718.00;;;;5129012;27;20134;-77
2021/12/29 00:53:11;;;;;;;0.00;0.00;;;;;20.10;100712.00;;;;5127910;27;20043;-78
2021/12/29 00:55:41;;;;;;;0.10;0.10;;;;;20.00;100729.00;;;;5130778;27;20070;-81
2021/12/29 00:58:11;;;;;;;2.88;0.13;;;;;20.20;100708.00;;;;5124290;27;20047;-79
2021/12/29 01:00:42;;;;;;;0.20;0.10;;;;;20.20;100736.00;;;;5117012;27;20421;-81
2021/12/29 01:03:12;;;;;;;0.03;0.03;;;;;20.10;100702.00;;;;5087732;28;20052;-79
2021/12/29 01:05:43;;;;;;;0.65;0.15;;;;;20.00;100698.00;;;;5088764;28;20044;-77
2021/12/29 01:08:13;;;;;;;2.60;0.43;;;;;20.00;100732.00;;;;5089595;28;20051;-80
2021/12/29 01:10:42;;;;;;;0.00;0.00;;;;;20.00;100738.00;;;;5088319;28;20044;-81
2021/12/29 01:13:18;;;;;;;0.00;0.00;;;;;20.00;100723.00;;;;5087708;28;20059;-79
2021/12/29 01:16:09;;;;;;;0.00;0.00;;;;;19.90;100736.00;;;;5089090;28;20063;-79
2021/12/29 01:18:39;;;;;;;0.32;0.10;;;;;19.90;100726.00;;;;5089587;28;20093;-78
2021/12/29 01:21:10;;;;;;;0.00;0.00;;;;;20.00;100721.00;;;;5088608;28;20056;-81
2021/12/29 01:23:39;;;;;;;0.00;0.00;;;;;20.00;100715.00;;;;5087433;28;20048;-78
2021/12/29 01:26:09;;;;;;;2.03;0.38;;;;;20.10;100716.00;;;;5088464;28;20053;-77
2021/12/29 01:28:38;;;;;;;0.00;0.00;;;;;20.10;100727.00;;;;5087780;28;20040;-80
2021/12/29 01:31:08;;;;;;;0.10;0.10;;;;;20.10;100742.00;;;;5088037;28;20047;-80
2021/12/29 01:33:37;;;;;;;0.20;0.10;;;;;19.90;100741.00;;;;5089010;28;20134;-80
2021/12/29 01:36:07;;;;;;;0.00;0.00;;;;;20.00;100724.00;;;;5089544;28;20066;-81
2021/12/29 01:38:36;;;;;;;0.00;0.00;;;;;20.00;100745.00;;;;5088736;28;20048;-79
2021/12/29 01:41:05;;;;;;;0.20;0.10;;;;;20.00;100746.00;;;;5087767;28;20055;-79
2021/12/29 01:43:35;;;;;;;0.00;0.00;;;;;20.00;100727.00;;;;5088365;28;20519;-77
2021/12/29 01:46:04;;;;;;;0.20;0.20;;;;;19.90;100729.00;;;;5087671;28;20055;-78
2021/12/29 01:48:34;;;;;;;0.00;0.00;;;;;19.90;100724.00;;;;5087496;28;20055;-79
2021/12/29 01:51:04;;;;;;;0.10;0.00;;;;;19.90;100741.00;;;;5088170;28;20069;-78
2021/12/29 01:53:35;;;;;;;0.05;0.05;;;;;19.90;100722.00;;;;5087377;28;20039;-78
2021/12/29 01:56:05;;;;;;;0.00;0.00;;;;;19.90;100744.00;;;;5087868;28;20067;-79
2021/12/29 01:58:35;;;;;;;0.10;0.10;;;;;19.70;100747.00;;;;5088400;28;20085;-81
2021/12/29 02:01:04;;;;;;;0.00;0.00;;;;;19.80;100745.00;;;;5086380;28;20048;-80
2021/12/29 02:03:34;;;;;;;0.00;0.00;;;;;19.70;100740.00;;;;5087988;28;20130;-79
2021/12/29 02:06:03;;;;;;;0.00;0.00;;;;;19.70;100751.00;;;;5087584;28;20499;-75
2021/12/29 02:08:34;;;;;;;0.00;0.00;;;;;19.70;100752.00;;;;5087311;28;20547;-80
2021/12/29 02:11:06;;;;;;;0.00;0.00;;;;;19.50;100747.00;;;;5087284;28;20617;-81
2021/12/29 02:13:36;;;;;;;0.10;0.10;;;;;19.40;100753.00;;;;5086319;28;20040;-78
2021/12/29 02:16:07;;;;;;;0.00;0.00;;;;;19.40;100738.00;;;;5086152;28;20090;-79
2021/12/29 02:18:38;;;;;;;0.00;0.00;;;;;19.50;100762.00;;;;5085834;28;20040;-80
2021/12/29 02:21:07;;;;;;;0.00;0.00;;;;;19.30;100746.00;;;;5086547;28;20067;-77
2021/12/29 02:23:54;;;;;;;0.00;0.00;;;;;19.30;100749.00;;;;5087304;28;20044;-77
2021/12/29 02:26:24;;;;;;;0.00;0.00;;;;;19.50;100730.00;;;;5087585;28;20424;-78
2021/12/29 02:28:55;;;;;;;0.00;0.00;;;;;19.30;100735.00;;;;5085916;28;20411;-79
2021/12/29 02:31:25;;;;;;;0.00;0.00;;;;;19.00;100727.00;;;;5087253;28;20044;-78
2021/12/29 02:33:56;;;;;;;0.00;0.00;;;;;18.80;100726.00;;;;5086649;28;20070;-79
2021/12/29 02:36:28;;;;;;;0.00;0.00;;;;;18.80;100750.00;;;;5085863;28;20080;-77
2021/12/29 02:38:57;;;;;;;0.00;0.00;;;;;18.60;100730.00;;;;5086167;28;20048;-78
2021/12/29 02:41:30;;;;;;;0.00;0.00;;;;;18.50;100746.00;;;;5085491;28;20048;-77
2021/12/29 02:44:01;;;;;;;0.00;0.00;;;;;18.40;100734.00;;;;5086584;28;20040;-78
2021/12/29 02:46:35;;;;;;;0.00;0.00;;;;;18.30;100747.00;;;;5086892;28;20032;-78
2021/12/29 02:49:05;;;;;;;0.00;0.00;;;;;18.20;100739.00;;;;5086789;28;20061;-78
2021/12/29 02:51:35;;;;;;;0.00;0.00;;;;;18.20;100726.00;;;;5085313;28;20059;-77
2021/12/29 02:54:05;;;;;;;0.00;0.00;;;;;18.00;100740.00;;;;5087014;28;20509;-77
2021/12/29 02:56:35;;;;;;;0.00;0.00;;;;;17.90;100729.00;;;;5086290;28;20581;-80
2021/12/29 02:59:07;;;;;;;0.00;0.00;;;;;17.80;100743.00;;;;5086494;28;20154;-77
2021/12/29 03:01:36;;;;;;;0.10;0.10;;;;;17.80;100717.00;;;;5084733;28;20600;-78
2021/12/29 03:04:06;;;;;;;0.00;0.00;;;;;17.80;100732.00;;;;5095268;28;20044;-76
2021/12/29 03:06:36;;;;;;;0.00;0.00;;;;;17.80;100704.00;;;;5097283;28;20055;-76
2021/12/29 03:09:08;;;;;;;0.00;0.00;;;;;17.70;100726.00;;;;5088778;28;20047;-79
2021/12/29 03:11:41;;;;;;;0.40;0.40;;;;;17.60;100709.00;;;;5085537;28;20100;-82
2021/12/29 03:14:14;;;;;;;0.00;0.00;;;;;17.50;100686.00;;;;5086163;28;20556;-81
2021/12/29 03:16:44;;;;;;;0.00;0.00;;;;;17.40;100711.00;;;;5086366;28;20051;-80
2021/12/29 03:19:13;;;;;;;0.08;0.08;;;;;17.40;100710.00;;;;5086239;28;20074;-77
2021/12/29 03:21:47;;;;;;;0.00;0.00;;;;;17.30;100703.00;;;;5085958;28;20056;-78
2021/12/29 03:24:20;;;;;;;0.00;0.00;;;;;17.30;100686.00;;;;5085726;28;20104;-80
2021/12/29 03:26:50;;;;;;;0.00;0.00;;;;;17.20;100693.00;;;;5086243;28;20131;-78
2021/12/29 03:29:20;;;;;;;0.00;0.00;;;;;17.20;100719.00;;;;5088338;28;20063;-79
2021/12/29 03:31:50;;;;;;;0.00;0.00;;;;;17.20;100719.00;;;;5091133;28;20050;-77
2021/12/29 03:34:19;;;;;;;0.00;0.00;;;;;17.10;100708.00;;;;5090747;28;20047;-77
2021/12/29 03:36:49;;;;;;;0.00;0.00;;;;;17.00;100716.00;;;;5089580;28;20050;-77
2021/12/29 03:39:18;;;;;;;0.00;0.00;;;;;17.00;100702.00;;;;5090314;28;20119;-80
2021/12/29 03:41:48;;;;;;;0.20;0.20;;;;;17.10;100715.00;;;;5089815;28;20044;-78
2021/12/29 03:44:18;;;;;;;0.00;0.00;;;;;17.10;100705.00;;;;5090206;28;20048;-78
2021/12/29 03:46:47;;;;;;;0.00;0.00;;;;;17.10;100696.00;;;;5089827;28;20067;-79
2021/12/29 03:49:16;;;;;;;0.50;0.28;;;;;17.00;100705.00;;;;5089268;28;20047;-76
2021/12/29 03:51:46;;;;;;;1.35;0.80;;;;;17.00;100706.00;;;;5090118;28;20052;-79
2021/12/29 03:54:16;;;;;;;0.00;0.00;;;;;17.00;100699.00;;;;5089313;28;20052;-77
2021/12/29 03:56:45;;;;;;;0.00;0.00;;;;;17.00;100670.00;;;;5090148;28;20044;-77
2021/12/29 03:59:16;;;;;;;0.00;0.00;;;;;17.00;100682.00;;;;5089658;28;20123;-77
2021/12/29 04:01:50;;;;;;;0.00;0.00;;;;;17.00;100675.00;;;;5089706;28;20035;-80
2021/12/29 04:04:20;;;;;;;0.10;0.10;;;;;17.00;100687.00;;;;5089962;28;20125;-77
2021/12/29 04:06:50;;;;;;;0.08;0.08;;;;;17.00;100678.00;;;;5089461;28;20052;-81
2021/12/29 04:09:19;;;;;;;0.00;0.00;;;;;17.00;100687.00;;;;5089659;28;20534;-82
2021/12/29 04:11:50;;;;;;;0.00;0.00;;;;;16.90;100670.00;;;;5088142;28;20040;-81
2021/12/29 04:14:25;;;;;;;0.00;0.00;;;;;16.80;100691.00;;;;5087857;28;20048;-81
2021/12/29 04:16:57;;;;;;;0.00;0.00;;;;;16.70;100663.00;;;;5089405;28;20042;-78
2021/12/29 04:19:40;;;;;;;0.00;0.00;;;;;16.60;100670.00;;;;5089124;28;20372;-77
2021/12/29 04:22:09;;;;;;;0.00;0.00;;;;;16.60;100667.00;;;;5089429;28;20511;-83
2021/12/29 04:24:39;;;;;;;0.00;0.00;;;;;16.60;100682.00;;;;5089090;28;20044;-81
2021/12/29 04:27:10;;;;;;;0.00;0.00;;;;;16.70;100673.00;;;;5088231;28;20093;-82
2021/12/29 04:29:41;;;;;;;0.00;0.00;;;;;16.60;100666.00;;;;5088957;28;20818;-78
2021/12/29 04:32:10;;;;;;;0.00;0.00;;;;;16.60;100646.00;;;;5088218;28;20487;-80
2021/12/29 04:34:40;;;;;;;0.00;0.00;;;;;16.70;100669.00;;;;5087827;28;20056;-76
2021/12/29 04:37:09;;;;;;;0.00;0.00;;;;;16.70;100673.00;;;;5088367;28;20044;-80
2021/12/29 04:39:38;;;;;;;0.00;0.00;;;;;16.70;100665.00;;;;5088218;28;20461;-79
2021/12/29 04:42:08;;;;;;;0.00;0.00;;;;;16.70;100655.00;;;;5088211;28;20513;-79
2021/12/29 04:44:38;;;;;;;0.00;0.00;;;;;16.70;100650.00;;;;5089275;28;20040;-78
2021/12/29 04:47:11;;;;;;;0.00;0.00;;;;;16.60;100670.00;;;;5088604;28;20509;-79
2021/12/29 04:49:42;;;;;;;0.00;0.00;;;;;16.60;100665.00;;;;5088604;28;20067;-76
2021/12/29 04:52:13;;;;;;;0.00;0.00;;;;;16.60;100646.00;;;;5089196;28;20507;-76
2021/12/29 04:54:43;;;;;;;0.00;0.00;;;;;16.50;100649.00;;;;5088751;28;20575;-78
2021/12/29 04:57:15;;;;;;;0.00;0.00;;;;;16.40;100638.00;;;;5088718;28;20067;-80
2021/12/29 04:59:45;;;;;;;0.00;0.00;;;;;16.30;100636.00;;;;5086798;28;20039;-76
2021/12/29 05:02:15;;;;;;;0.00;0.00;;;;;16.30;100626.00;;;;5088232;28;20097;-80
2021/12/29 05:04:47;;;;;;;0.00;0.00;;;;;16.30;100635.00;;;;5088400;28;20473;-77
2021/12/29 05:10:05;;;;;;;0.10;0.10;;;;;16.40;100623.00;;;;5088243;28;20056;-79
2021/12/29 05:12:34;;;;;;;0.00;0.00;;;;;16.30;100610.00;;;;5087920;28;20101;-78
2021/12/29 05:15:05;;;;;;;0.00;0.00;;;;;16.30;100634.00;;;;5087892;28;20044;-81
2021/12/29 05:17:34;;;;;;;0.00;0.00;;;;;16.20;100624.00;;;;5088254;28;20071;-79
2021/12/29 05:20:04;;;;;;;0.00;0.00;;;;;16.20;100614.00;;;;5087918;28;20282;-78
2021/12/29 05:22:33;;;;;;;0.00;0.00;;;;;16.20;100608.00;;;;5088330;28;20105;-77
2021/12/29 05:25:04;;;;;;;0.00;0.00;;;;;16.20;100630.00;;;;5088296;28;20044;-79
2021/12/29 05:27:34;;;;;;;0.00;0.00;;;;;16.20;100623.00;;;;5088045;28;20044;-76
2021/12/29 05:30:04;;;;;;;0.00;0.00;;;;;16.20;100611.00;;;;5088332;28;20052;-76
2021/12/29 05:32:34;;;;;;;0.00;0.00;;;;;16.20;100615.00;;;;5086505;28;20133;-79
2021/12/29 05:35:05;;;;;;;0.00;0.00;;;;;16.20;100609.00;;;;5086487;28;20606;-78
2021/12/29 05:37:36;;;;;;;0.00;0.00;;;;;16.20;100613.00;;;;5087734;28;20628;-76
2021/12/29 05:40:07;;;;;;;0.00;0.00;;;;;16.00;100600.00;;;;5087228;28;20092;-75
2021/12/29 05:42:37;;;;;;;0.00;0.00;;;;;16.10;100594.00;;;;5087291;28;20052;-77
2021/12/29 05:45:10;;;;;;;0.00;0.00;;;;;16.10;100603.00;;;;5087711;28;20052;-77
2021/12/29 05:47:40;;;;;;;0.00;0.00;;;;;16.10;100601.00;;;;5087717;28;20044;-77
2021/12/29 05:50:12;;;;;;;4.53;0.85;;;;;16.10;100598.00;;;;5087215;28;20078;-76
2021/12/29 05:52:42;;;;;;;0.00;0.00;;;;;16.20;100598.00;;;;5087209;28;20079;-76
2021/12/29 05:55:12;;;;;;;0.00;0.00;;;;;16.20;100605.00;;;;5087628;28;20434;-76
2021/12/29 05:57:43;;;;;;;0.00;0.00;;;;;16.10;100592.00;;;;5087164;28;20058;-77
2021/12/29 06:00:15;;;;;;;0.00;0.00;;;;;16.10;100615.00;;;;5086764;28;20511;-77
2021/12/29 06:02:48;;;;;;;0.00;0.00;;;;;16.00;100622.00;;;;5085099;28;20055;-76
2021/12/29 06:05:18;;;;;;;0.00;0.00;;;;;16.10;100603.00;;;;5086794;28;20508;-76
2021/12/29 06:07:49;;;;;;;0.00;0.00;;;;;16.20;100622.00;;;;5087133;28;20112;-77
2021/12/29 06:10:19;;;;;;;0.00;0.00;;;;;16.20;100621.00;;;;5087373;28;20048;-77
2021/12/29 06:12:48;;;;;;;0.00;0.00;;;;;16.20;100627.00;;;;5086826;28;20048;-76
2021/12/29 06:15:18;;;;;;;0.00;0.00;;;;;16.30;100622.00;;;;5087381;28;20059;-77
2021/12/29 06:17:48;;;;;;;0.10;0.10;;;;;16.30;100598.00;;;;5086792;28;20534;-76
2021/12/29 06:20:17;;;;;;;0.20;0.10;;;;;16.30;100621.00;;;;5087075;28;20040;-77
2021/12/29 06:22:47;;;;;;;0.00;0.00;;;;;16.30;100607.00;;;;5086849;28;20052;-77
2021/12/29 06:25:17;;;;;;;1.55;0.32;;;;;16.30;100618.00;;;;5086615;28;20047;-77
2021/12/29 06:27:47;;;;;;;0.00;0.00;;;;;16.30;100599.00;;;;5086626;28;20054;-76
2021/12/29 06:30:17;;;;;;;0.00;0.00;;;;;16.20;100617.00;;;;5085189;28;20048;-77
2021/12/29 06:32:47;;;;;;;0.10;0.08;;;;;16.20;100624.00;;;;5087241;28;20097;-77
2021/12/29 06:35:16;;;;;;;0.00;0.00;;;;;16.20;100623.00;;;;5086699;28;20501;-76
2021/12/29 06:37:46;;;;;;;0.32;0.20;;;;;16.20;100616.00;;;;5085985;28;20105;-76
2021/12/29 06:40:16;;;;;;;0.00;0.00;;;;;16.20;100604.00;;;;5086370;28;20040;-76
2021/12/29 06:42:45;;;;;;;0.00;0.00;;;;;16.20;100600.00;;;;5087184;28;20048;-77
2021/12/29 06:45:15;;;;;;;0.00;0.00;;;;;16.10;100615.00;;;;5085647;28;20047;-76
2021/12/29 06:47:44;;;;;;;0.00;0.00;;;;;16.00;100635.00;;;;5086796;28;20067;-76
2021/12/29 06:50:14;;;;;;;0.00;0.00;;;;;15.90;100637.00;;;;5084851;28;20538;-77
2021/12/29 06:52:43;;;;;;;0.00;0.00;;;;;16.00;100640.00;;;;5086412;28;20160;-77
2021/12/29 06:55:12;;;;;;;0.00;0.00;;;;;15.90;100618.00;;;;5086431;28;20063;-77
2021/12/29 06:57:42;;;;;;;0.00;0.00;;;;;15.80;100619.00;;;;5086237;28;20050;-77
2021/12/29 07:00:12;;;;;;;0.00;0.00;;;;;15.80;100636.00;;;;5086110;28;20040;-76
2021/12/29 07:02:41;;;;;;;0.00;0.00;;;;;15.70;100635.00;;;;5086376;28;20537;-76
2021/12/29 07:05:11;;;;;;;0.00;0.00;;;;;15.70;100647.00;;;;5085886;28;20048;-76
2021/12/29 07:07:42;;;;;;;0.00;0.00;;;;;15.70;100644.00;;;;5086086;28;20043;-76
2021/12/29 07:10:11;;;;;;;0.00;0.00;;;;;15.70;100637.00;;;;5086422;28;20502;-76
2021/12/29 07:12:41;;;;;;;0.00;0.00;;;;;15.70;100617.00;;;;5086564;28;20044;-76
2021/12/29 07:15:11;;;;;;;0.00;0.00;;;;;15.60;100620.00;;;;5086058;28;20048;-77
2021/12/29 07:17:40;;;;;;;0.00;0.00;;;;;15.60;100630.00;;;;5086603;28;20526;-76
2021/12/29 07:20:10;;;;;;;0.00;0.00;;;;;15.60;100647.00;;;;5068578;28;20087;-76
2021/12/29 07:22:39;;;;;;;0.00;0.00;;;;;15.50;100636.00;;;;5086076;28;20044;-76
2021/12/29 07:25:09;;;;;;;0.00;0.00;;;;;15.50;100655.00;;;;5085817;28;20048;-76
2021/12/29 07:27:38;;;;;;;0.00;0.00;;;;;15.60;100662.00;;;;5086240;28;20062;-76
2021/12/29 07:30:08;;;;;;;0.00;0.00;;;;;15.60;100664.00;;;;5085893;28;20059;-76
2021/12/29 07:32:38;;;;;;;0.00;0.00;;;;;15.50;100656.00;;;;5086006;28;20048;-76
2021/12/29 07:35:08;;;;;;;0.00;0.00;;;;;15.40;100669.00;;;;5084515;28;20067;-76
2021/12/29 07:37:37;;;;;;;0.00;0.00;;;;;15.40;100673.00;;;;5084727;28;20518;-76
2021/12/29 07:40:08;;;;;;;0.00;0.00;;;;;15.40;100663.00;;;;5086326;28;20040;-76
2021/12/29 07:42:39;;;;;;;0.00;0.00;;;;;15.40;100659.00;;;;5085347;28;20411;-76
2021/12/29 07:45:10;;;;;;;0.00;0.00;;;;;15.40;100663.00;;;;5084738;28;20044;-76
2021/12/29 07:47:46;;;;;;;0.00;0.00;;;;;15.50;100685.00;;;;5086179;28;20412;-76
2021/12/29 07:50:19;;;;;;;0.00;0.00;;;;;15.40;100681.00;;;;5085942;28;20044;-76
2021/12/29 07:53:05;;;;;;;0.00;0.00;;;;;15.50;100699.00;;;;5084282;28;20044;-78
2021/12/29 07:55:34;;;;;;;0.00;0.00;;;;;15.40;100676.00;;;;5086089;28;20037;-76
2021/12/29 07:58:04;;;;;;;0.00;0.00;;;;;15.40;100660.00;;;;5084298;28;20047;-78
2021/12/29 08:00:33;;;;;;;0.00;0.00;;;;;15.40;100685.00;;;;5084530;28;20052;-78
2021/12/29 08:03:03;;;;;;;0.00;0.00;;;;;15.30;100677.00;;;;5085850;28;20071;-78
2021/12/29 08:05:32;;;;;;;0.00;0.00;;;;;15.20;100695.00;;;;5084902;28;20081;-78
2021/12/29 08:08:05;;;;;;;0.00;0.00;;;;;15.20;100682.00;;;;5085841;28;20052;-78
2021/12/29 08:10:36;;;;;;;0.00;0.00;;;;;15.30;100686.00;;;;5085945;28;20075;-77
2021/12/29 08:13:07;;;;;;;0.00;0.00;;;;;15.20;100709.00;;;;5085662;28;20097;-77
2021/12/29 08:15:37;;;;;;;0.00;0.00;;;;;15.10;100698.00;;;;5087074;28;20047;-77
2021/12/29 08:18:06;;;;;;;0.00;0.00;;;;;15.20;100698.00;;;;5089338;28;20036;-77
2021/12/29 08:20:36;;;;;;;0.15;0.05;;;;;15.20;100714.00;;;;5089292;28;20391;-77
2021/12/29 08:23:07;;;;;;;0.00;0.00;;;;;15.20;100693.00;;;;5089296;28;20044;-78
2021/12/29 08:25:36;;;;;;;;;;;;;15.30;100715.00;;;;5090017;28;20047;-75
2021/12/29 08:28:06;;;;;;;0.00;0.00;;;;;15.30;100719.00;;;;5089245;28;19923;-78
2021/12/29 08:30:36;;;;;;;0.00;0.00;;;;;15.30;100690.00;;;;5088940;28;20414;-78
2021/12/29 08:33:05;;;;;;;0.00;0.00;;;;;15.30;100689.00;;;;5087558;28;20043;-76
2021/12/29 08:35:36;;;;;;;0.00;0.00;;;;;15.30;100701.00;;;;5088840;28;20039;-76
2021/12/29 08:38:05;;;;;;;0.00;0.00;;;;;15.30;100699.00;;;;5088552;28;20040;-76
2021/12/29 08:40:35;;;;;;;0.00;0.00;;;;;15.40;100710.00;;;;5087339;28;20430;-76
2021/12/29 08:43:04;;;;;;;0.00;0.00;;;;;15.40;100714.00;;;;5088863;28;20044;-74
2021/12/29 08:45:34;;;;;;;0.00;0.00;;;;;15.40;100723.00;;;;5088890;28;20041;-76
2021/12/29 08:48:04;;;;;;;0.00;0.00;;;;;15.40;100716.00;;;;5088351;28;20048;-78
2021/12/29 08:50:34;;;;;;;0.00;0.00;;;;;15.40;100706.00;;;;5089008;28;20044;-77
2021/12/29 08:53:05;;;;;;;0.00;0.00;;;;;15.30;100722.00;;;;5088217;28;20051;-78
2021/12/29 08:55:36;;;;;;;0.00;0.00;;;;;15.40;100709.00;;;;5088338;28;20124;-78
2021/12/29 08:58:06;;;;;;;0.00;0.00;;;;;15.50;100722.00;;;;5088889;28;20693;-78
2021/12/29 09:00:36;;;;;;;0.00;0.00;;;;;15.60;100746.00;;;;5087749;28;20044;-76
2021/12/29 09:03:06;;;;;;;0.00;0.00;;;;;15.60;100743.00;;;;5088960;28;20048;-76
2021/12/29 09:05:38;;;;;;;0.00;0.00;;;;;15.70;100745.00;;;;5088110;28;20052;-78
2021/12/29 09:08:08;;;;;;;0.00;0.00;;;;;15.80;100750.00;;;;5087791;28;20052;-76
2021/12/29 09:10:38;;;;;;;0.00;0.00;;;;;15.90;100749.00;;;;5088305;28;20094;-76
2021/12/29 09:13:08;;;;;;;0.00;0.00;;;;;16.00;100751.00;;;;5087162;28;20113;-76
2021/12/29 09:15:37;;;;;;;0.00;0.00;;;;;16.10;100736.00;;;;5088288;28;20048;-76
2021/12/29 09:18:07;;;;;;;0.00;0.00;;;;;16.20;100755.00;;;;5087955;28;20082;-76
2021/12/29 09:20:44;;;;;;;0.00;0.00;;;;;16.20;100748.00;;;;5087813;28;20055;-76
2021/12/29 09:23:15;;;;;;;0.00;0.00;;;;;16.20;100754.00;;;;5086983;28;20118;-76
2021/12/29 09:25:46;;;;;;;0.00;0.00;;;;;16.30;100752.00;;;;5087877;28;20588;-76
2021/12/29 09:28:18;;;;;;;2.22;0.55;;;;;16.40;100732.00;;;;5087873;28;20048;-75
2021/12/29 09:30:49;;;;;;;0.00;0.00;;;;;16.50;100760.00;;;;5087657;28;20404;-75
2021/12/29 09:33:19;;;;;;;0.00;0.00;;;;;17.30;100697.00;;;;5086949;28;20066;-76
2021/12/29 09:35:53;;;;;;;0.00;0.00;;;;;17.80;100708.00;;;;5087896;28;20093;-76
2021/12/29 09:38:24;;;;;;;0.00;0.00;;;;;21.00;100580.00;;;;5087625;28;20044;-76
2021/12/29 09:40:53;;;;;;;0.00;0.00;;;;;20.30;100701.00;;;;5086386;28;20762;-76
2021/12/29 09:43:23;;;;;;;0.00;0.00;;;;;19.20;100721.00;;;;5086465;28;20105;-76
2021/12/29 09:45:52;;;;;;;0.00;0.00;;;;;19.70;100668.00;;;;5087692;28;20055;-76
2021/12/29 09:48:22;;;;;;;0.20;0.20;;;;;19.50;100693.00;;;;5086283;28;20052;-76
2021/12/29 09:50:53;;;;;;;0.00;0.00;;;;;20.90;100675.00;;;;5087407;28;20097;-76
2021/12/29 09:53:23;;;;;;;1.38;0.90;;;;;19.60;100747.00;;;;5085829;28;20059;-76
2021/12/29 09:55:52;;;;;;;0.00;0.00;;;;;19.30;100736.00;;;;5086465;28;20040;-76
2021/12/29 09:58:21;;;;;;;0.00;0.00;;;;;19.20;100748.00;;;;5087217;28;20051;-76
2021/12/29 10:00:57;;;;;;;0.00;0.00;;;;;19.60;100771.00;;;;5087548;28;20059;-75
2021/12/29 10:03:29;;;;;;;0.00;0.00;;;;;19.60;100749.00;;;;5087118;28;20052;-76
2021/12/29 10:06:03;;;;;;;0.00;0.00;;;;;19.60;100759.00;;;;5086349;28;20435;-76
2021/12/29 10:08:38;;;;;;;0.00;0.00;;;;;19.60;100739.00;;;;5084856;28;20044;-77
2021/12/29 10:11:39;;;;;;;0.00;0.00;;;;;19.70;100764.00;;;;5083421;28;20044;-77
2021/12/29 10:14:11;;;;;;;0.00;0.00;;;;;20.00;100750.00;;;;5084312;28;20052;-77
2021/12/29 10:16:45;;;;;;;0.30;0.30;;;;;20.10;100752.00;;;;5086458;28;20047;-75
2021/12/29 10:19:15;;;;;;;0.00;0.00;;;;;20.10;100767.00;;;;5085119;28;20172;-75
2021/12/29 10:21:48;;;;;;;0.43;0.17;;;;;20.30;100759.00;;;;5086206;28;20052;-78
2021/12/29 10:24:19;;;;;;;0.05;0.00;;;;;21.10;100693.00;;;;5086886;28;20523;-77
2021/12/29 10:26:50;;;;;;;0.00;0.00;;;;;21.60;100747.00;;;;5086811;28;20051;-75
2021/12/29 10:29:22;;;;;;;0.00;0.00;;;;;21.20;100760.00;;;;5086323;28;20143;-75
2021/12/29 10:32:03;;;;;;;0.00;0.00;;;;;21.40;100747.00;;;;5086848;28;20050;-75
2021/12/29 10:34:33;;;;;;;0.00;0.00;;;;;23.50;100718.00;;;;5086825;28;20090;-75
2021/12/29 10:37:07;;;;;;;0.10;0.10;;;;;23.40;100744.00;;;;5086660;28;20048;-76
2021/12/29 10:39:47;;;;;;;0.70;0.40;;;;;21.80;100752.00;;;;5086288;28;20496;-76
2021/12/29 10:42:22;;;;;;;0.00;0.00;;;;;22.60;100734.00;;;;5087653;28;20369;-74
2021/12/29 10:44:59;;;;;;;0.00;0.00;;;;;21.90;100777.00;;;;5086695;28;20082;-76
2021/12/29 10:47:34;;;;;;;0.10;0.10;;;;;21.70;100767.00;;;;5086699;28;20048;-77
2021/12/29 10:50:09;;;;;;;2.10;0.22;;;;;21.80;100766.00;;;;5086058;28;20102;-77
2021/12/29 10:52:50;;;;;;;0.22;0.13;;;;;22.20;100767.00;;;;5086206;28;20089;-76
2021/12/29 10:55:22;;;;;;;0.17;0.13;;;;;22.20;100763.00;;;;5085564;28;20052;-77
2021/12/29 10:58:05;;;;;;;0.00;0.00;;;;;22.30;100779.00;;;;5085182;28;20051;-77
2021/12/29 11:01:10;;;;;;;0.10;0.05;;;;;22.40;100765.00;;;;5084745;28;20056;-77
2021/12/29 11:03:52;;;;;;;0.03;0.00;;;;;22.70;100765.00;;;;5089197;28;20471;-76
2021/12/29 11:06:23;;;;;;;0.00;0.00;;;;;23.10;100742.00;;;;5095917;28;20064;-76
2021/12/29 11:08:58;;;;;;;;;;;;;28.50;100574.00;;;;5091592;28;20036;-76
2021/12/29 11:11:37;;;;;;;0.77;0.38;;;;;31.50;100550.00;;;;5086301;28;19970;-75
2021/12/29 11:14:21;;;;;;;0.00;0.00;;;;;32.60;100537.00;;;;5086898;28;20055;-75
2021/12/29 11:17:06;;;;;;;3.63;1.35;;;;;33.10;100552.00;;;;5086437;28;20093;-77
2021/12/29 11:19:37;;;;;;;0.20;0.20;;;;;33.40;100530.00;;;;5084246;28;20430;-76
2021/12/29 11:22:19;;;;;;;0.00;0.00;;;;;34.10;100531.00;;;;5084655;28;20032;-77
2021/12/29 11:25:15;;;;;;;0.20;0.20;;;;;33.90;100545.00;;;;5085256;28;20044;-77
2021/12/29 11:27:47;;;;;;;0.10;0.10;;;;;34.00;100533.00;;;;5083892;28;20052;-78
2021/12/29 11:30:16;;;;;;;0.10;0.10;;;;;34.00;100517.00;;;;5085481;28;20047;-78
2021/12/29 11:32:48;;;;;;;0.65;0.65;;;;;34.40;100547.00;;;;5085103;28;20059;-78
2021/12/29 11:35:23;;;;;;;0.00;0.00;;;;;34.30;100547.00;;;;5084715;28;20048;-78
2021/12/29 11:37:56;;;;;;;0.00;0.00;;;;;33.90;100537.00;;;;5086030;28;20052;-79
2021/12/29 11:40:28;;;;;;;0.00;0.00;;;;;33.40;100546.00;;;;5086180;28;20518;-79
2021/12/29 11:42:58;;;;;;;0.00;0.00;;;;;33.40;100556.00;;;;5086171;28;20569;-77
2021/12/29 11:45:28;;;;;;;0.00;0.00;;;;;32.90;100567.00;;;;5085694;28;20533;-77
2021/12/29 11:47:58;;;;;;;0.27;0.23;;;;;32.30;100569.00;;;;5086360;28;20071;-77
2021/12/29 11:50:32;;;;;;;2.22;0.95;;;;;31.70;100562.00;;;;5088611;28;20055;-77
2021/12/29 11:53:08;;;;;;;1.05;0.63;;;;;30.80;100577.00;;;;5090444;28;20500;-77
2021/12/29 11:55:50;;;;;;;0.57;0.52;;;;;30.50;100591.00;;;;5089509;28;20075;-77
2021/12/29 11:58:28;;;;;;;0.00;0.00;;;;;30.20;100618.00;;;;5088044;28;20044;-78
2021/12/29 12:01:24;;;;;;;0.00;0.00;;;;;29.80;100615.00;;;;5089767;28;20664;-78
2021/12/29 12:03:59;;;;;;;1.45;0.55;;;;;29.80;100677.00;;;;5089860;28;20130;-77
2021/12/29 12:06:37;;;;;;;0.00;0.00;;;;;29.00;100706.00;;;;5089707;28;20068;-76
2021/12/29 12:09:10;;;;;;;0.00;0.00;;;;;28.80;100701.00;;;;5089690;28;20507;-77
2021/12/29 12:11:44;;;;;;;0.00;0.00;;;;;29.40;100703.00;;;;5089841;28;20036;-77
2021/12/29 12:14:34;;;;;;;0.20;0.20;;;;;28.90;100707.00;;;;5089358;28;20040;-76
2021/12/29 12:17:16;;;;;;;0.00;0.00;;;;;29.20;100688.00;;;;5088895;28;20040;-79
2021/12/29 12:19:57;;;;;;;0.20;0.17;;;;;29.80;100693.00;;;;5089538;28;20511;-78
2021/12/29 12:22:29;;;;;;;0.08;0.00;;;;;30.20;100687.00;;;;5089091;28;20048;-77
2021/12/29 12:25:03;;;;;;;0.00;0.00;;;;;30.40;100685.00;;;;5089401;28;20040;-77
2021/12/29 12:27:39;;;;;;;0.00;0.00;;;;;30.60;100679.00;;;;5087909;28;20067;-78
2021/12/29 12:30:22;;;;;;;0.30;0.30;;;;;30.60;100682.00;;;;5089137;28;20043;-78
2021/12/29 12:33:08;;;;;;;0.35;0.20;;;;;30.70;100696.00;;;;5088540;28;20111;-77
2021/12/29 12:35:45;;;;;;;0.80;0.80;;;;;30.60;100700.00;;;;5088919;28;20105;-78